createdAt,value
2022-08-11T00:02:04.540Z,101672.13
2022-08-11T00:07:08.820Z,101668.97
2022-08-11T00:12:17.923Z,101672.00
2022-08-11T00:17:21.248Z,101666.28
2022-08-11T00:22:24.587Z,101662.47
2022-08-11T00:27:34.664Z,101659.47
2022-08-11T00:32:44.418Z,101657.41
2022-08-11T00:43:40.415Z,101652.53
2022-08-11T00:49:04.763Z,101651.97
2022-08-11T00:54:16.377Z,101648.38
2022-08-11T00:59:35.371Z,101662.69
2022-08-11T01:04:55.525Z,101660.78
2022-08-11T01:10:23.030Z,101660.19
2022-08-11T01:15:57.051Z,101665.25
2022-08-11T01:21:27.764Z,101673.53
2022-08-11T01:26:55.332Z,101669.59
2022-08-11T01:32:22.244Z,101664.78
2022-08-11T01:37:48.965Z,101659.66
2022-08-11T01:43:36.248Z,101657.47
2022-08-11T01:50:06.721Z,101669.72
2022-08-11T01:55:08.040Z,101666.81
2022-08-11T02:00:21.026Z,101657.31
2022-08-11T02:05:48.302Z,101664.47
2022-08-11T02:11:35.782Z,101666.84
2022-08-11T02:17:09.444Z,101675.41
2022-08-11T02:22:39.964Z,101672.25
2022-08-11T02:27:51.520Z,101679.84
2022-08-11T02:33:27.619Z,101680.88
2022-08-11T02:38:50.582Z,101678.03
2022-08-11T02:44:17.388Z,101671.63
2022-08-11T02:50:02.791Z,101692.50
2022-08-11T02:55:44.428Z,101685.69
2022-08-11T03:01:16.044Z,101687.59
2022-08-11T03:06:40.402Z,101687.34
2022-08-11T03:12:25.686Z,101697.91
2022-08-11T03:17:47.134Z,101699.00
2022-08-11T03:23:19.677Z,101695.53
2022-08-11T03:28:48.991Z,101696.97
2022-08-11T03:34:07.002Z,101701.94
2022-08-11T03:39:26.258Z,101692.34
2022-08-11T03:44:50.422Z,101700.69
2022-08-11T03:50:03.267Z,101701.25
2022-08-11T03:55:28.370Z,101701.34
2022-08-11T04:00:58.979Z,101709.69
2022-08-11T04:06:29.506Z,101716.63
2022-08-11T04:11:50.451Z,101704.25
2022-08-11T04:17:27.612Z,101707.44
2022-08-11T04:24:33.378Z,101720.22
2022-08-11T04:28:54.119Z,101709.63
2022-08-11T04:34:14.953Z,101705.06
2022-08-11T04:39:35.033Z,101708.78
2022-08-11T04:45:17.002Z,101706.25
2022-08-11T04:51:10.450Z,101703.53
2022-08-11T04:56:44.185Z,101701.59
2022-08-11T05:02:16.660Z,101699.31
2022-08-11T05:08:04.267Z,101697.53
2022-08-11T05:13:26.731Z,101696.25
2022-08-11T05:18:49.120Z,101696.28
2022-08-11T05:24:17.564Z,101690.41
2022-08-11T05:29:57.293Z,101714.91
2022-08-11T05:35:02.403Z,101700.53
2022-08-11T05:40:26.448Z,101702.66
2022-08-11T05:45:57.302Z,101704.28
2022-08-11T05:51:30.240Z,101697.84
2022-08-11T05:56:35.372Z,101708.59
2022-08-11T06:01:39.434Z,101715.59
2022-08-11T06:06:58.154Z,101699.47
2022-08-11T06:12:04.838Z,101698.69
2022-08-11T06:17:07.525Z,101687.59
2022-08-11T06:22:12.534Z,101700.66
2022-08-11T06:27:26.716Z,101708.91
2022-08-11T06:32:37.862Z,101703.66
2022-08-11T06:37:59.458Z,101684.25
2022-08-11T06:43:20.063Z,101695.66
2022-08-11T06:48:24.517Z,101699.38
2022-08-11T06:53:34.813Z,101698.50
2022-08-11T06:58:59.057Z,101690.88
2022-08-11T07:04:09.383Z,101690.69
2022-08-11T07:09:53.054Z,101680.78
2022-08-11T07:16:10.638Z,101671.38
2022-08-11T07:22:00.297Z,101677.38
2022-08-11T07:26:57.586Z,101677.97
2022-08-11T07:32:09.784Z,101684.03
2022-08-11T07:37:22.842Z,101683.78
2022-08-11T07:42:31.886Z,101680.56
2022-08-11T07:47:55.333Z,101679.34
2022-08-11T07:53:03.084Z,101684.84
2022-08-11T07:58:25.134Z,101683.28
2022-08-11T08:03:54.032Z,101688.22
2022-08-11T08:09:17.188Z,101667.84
2022-08-11T08:14:38.818Z,101690.09
2022-08-11T08:19:44.690Z,101678.84
2022-08-11T08:24:47.881Z,101680.66
2022-08-11T08:30:09.303Z,101678.38
2022-08-11T08:35:13.070Z,101677.16
2022-08-11T08:40:17.286Z,101673.03
2022-08-11T08:45:21.262Z,101669.75
2022-08-11T08:50:46.906Z,101668.16
2022-08-11T08:55:51.804Z,101662.22
2022-08-11T09:00:56.023Z,101665.88
2022-08-11T09:05:59.259Z,101664.94
2022-08-11T09:11:23.287Z,101661.53
2022-08-11T09:16:26.099Z,101671.53
2022-08-11T09:21:46.327Z,101666.19
2022-08-11T09:27:03.054Z,101662.81
2022-08-11T09:32:07.403Z,101651.28
2022-08-11T09:37:55.178Z,101637.34
2022-08-11T09:43:10.906Z,101633.25
2022-08-11T09:48:13.671Z,101637.44
2022-08-11T09:53:36.493Z,101622.81
2022-08-11T09:58:42.417Z,101630.88
2022-08-11T10:03:47.153Z,101618.34
2022-08-11T10:08:52.826Z,101612.91
2022-08-11T10:14:34.306Z,101610.63
2022-08-11T10:19:38.531Z,101599.31
2022-08-11T10:25:03.392Z,101605.03
2022-08-11T10:30:27.236Z,101594.09
2022-08-11T10:35:32.623Z,101591.34
2022-08-11T10:40:36.271Z,101587.34
2022-08-11T10:45:59.906Z,101583.53
2022-08-11T10:51:14.800Z,101588.50
2022-08-11T10:56:37.725Z,101579.22
2022-08-11T11:01:42.983Z,101581.47
2022-08-11T11:06:54.771Z,101573.28
2022-08-11T11:12:20.230Z,101572.59
2022-08-11T11:18:02.386Z,101566.03
2022-08-11T11:23:29.191Z,101561.69
2022-08-11T11:29:00.580Z,101531.63
2022-08-11T11:34:24.964Z,101550.81
2022-08-11T11:39:29.921Z,101542.66
2022-08-11T11:44:33.315Z,101535.84
2022-08-11T11:49:41.413Z,101538.41
2022-08-11T11:54:44.319Z,101528.25
2022-08-11T12:00:05.564Z,101518.44
2022-08-11T12:05:15.310Z,101517.53
2022-08-11T12:10:19.249Z,101515.16
2022-08-11T12:16:04.180Z,101519.38
2022-08-11T12:20:46.260Z,101512.78
2022-08-11T12:26:26.431Z,101512.56
2022-08-11T12:31:31.002Z,101504.03
2022-08-11T12:36:38.093Z,101484.28
2022-08-11T12:42:00.859Z,101475.41
2022-08-11T12:47:05.024Z,101466.16
2022-08-11T12:52:14.778Z,101467.63
2022-08-11T12:57:55.685Z,101463.25
2022-08-11T13:03:17.837Z,101454.31
2022-08-11T13:08:21.163Z,101441.81
2022-08-11T13:13:55.313Z,101426.22
2022-08-11T13:18:47.493Z,101427.97
2022-08-11T13:23:59.640Z,101429.59
2022-08-11T13:29:05.735Z,101416.81
2022-08-11T13:34:09.101Z,101429.28
2022-08-11T13:39:14.744Z,101412.03
2022-08-11T13:44:24.780Z,101415.06
2022-08-11T13:49:31.983Z,101417.56
2022-08-11T13:54:39.764Z,101411.81
2022-08-11T13:59:52.446Z,101413.50
2022-08-11T14:05:02.428Z,101410.22
2022-08-11T14:10:07.553Z,101406.66
2022-08-11T14:15:25.551Z,101400.53
2022-08-11T14:20:49.851Z,101391.66
2022-08-11T14:26:11.058Z,101397.78
2022-08-11T14:31:15.852Z,101396.09
2022-08-11T14:36:19.364Z,101387.72
2022-08-11T14:42:11.894Z,101389.50
2022-08-11T14:47:24.714Z,101385.13
2022-08-11T14:52:28.451Z,101391.25
2022-08-11T14:57:54.299Z,101386.44
2022-08-11T15:03:11.867Z,101393.16
2022-08-11T15:08:16.918Z,101385.16
2022-08-11T15:13:27.537Z,101379.19
2022-08-11T15:18:30.619Z,101377.47
2022-08-11T15:23:51.701Z,101381.13
2022-08-11T15:29:12.985Z,101380.66
2022-08-11T15:34:35.419Z,101380.88
2022-08-11T15:40:05.157Z,101376.09
2022-08-11T15:45:28.997Z,101382.22
2022-08-11T15:50:35.091Z,101378.81
2022-08-11T15:55:38.754Z,101385.94
2022-08-11T16:01:04.102Z,101376.03
2022-08-11T16:06:13.856Z,101372.56
2022-08-11T16:11:22.258Z,101371.16
2022-08-11T16:16:25.032Z,101365.25
2022-08-11T16:21:36.364Z,101363.81
2022-08-11T16:27:09.294Z,101360.16
2022-08-11T16:32:18.102Z,101358.13
2022-08-11T16:37:40.928Z,101356.41
2022-08-11T16:43:10.250Z,101361.25
2022-08-11T16:48:37.558Z,101358.53
2022-08-11T16:53:48.957Z,101358.63
2022-08-11T16:59:17.625Z,101355.50
2022-08-11T17:05:06.597Z,101354.81
2022-08-11T17:10:52.046Z,101357.06
2022-08-11T17:16:06.873Z,101345.66
2022-08-11T17:21:16.423Z,101361.59
2022-08-11T17:26:22.389Z,101361.63
2022-08-11T17:31:44.592Z,101369.00
2022-08-11T17:36:49.178Z,101358.63
2022-08-11T17:42:12.190Z,101366.94
2022-08-11T17:47:34.487Z,101363.81
2022-08-11T17:52:56.580Z,101374.53
2022-08-11T17:58:18.326Z,101383.19
2022-08-11T18:03:33.223Z,101392.38
2022-08-11T18:08:57.985Z,101391.19
2022-08-11T18:14:22.137Z,101387.56
2022-08-11T18:19:43.354Z,101402.09
2022-08-11T18:25:07.130Z,101411.16
2022-08-11T18:30:29.777Z,101415.81
2022-08-11T18:35:51.725Z,101411.28
2022-08-11T18:41:13.175Z,101418.03
2022-08-11T18:46:37.581Z,101413.53
2022-08-11T18:52:00.318Z,101429.16
2022-08-11T18:57:23.668Z,101419.72
2022-08-11T19:02:49.174Z,101426.84
2022-08-11T19:08:11.858Z,101425.88
2022-08-11T19:13:33.389Z,101426.41
2022-08-11T19:18:54.902Z,101434.44
2022-08-11T19:24:19.086Z,101430.84
2022-08-11T19:30:11.126Z,101439.66
2022-08-11T19:35:25.248Z,101435.13
2022-08-11T19:40:47.326Z,101443.09
2022-08-11T19:46:08.597Z,101446.00
2022-08-11T19:51:30.812Z,101454.91
2022-08-11T19:56:53.531Z,101468.75
2022-08-11T20:02:17.696Z,101469.25
2022-08-11T20:07:39.374Z,101466.56
2022-08-11T20:13:02.246Z,101477.75
2022-08-11T20:18:26.619Z,101480.00
2022-08-11T20:23:48.377Z,101481.91
2022-08-11T20:29:11.435Z,101486.13
2022-08-11T20:34:33.779Z,101485.13
2022-08-11T20:39:55.666Z,101472.59
2022-08-11T20:45:23.619Z,101473.59
2022-08-11T20:50:46.116Z,101487.16
2022-08-11T20:56:08.557Z,101480.88
2022-08-11T21:01:38.907Z,101485.06
2022-08-11T21:07:02.877Z,101478.41
2022-08-11T21:12:24.947Z,101477.78
2022-08-11T21:18:00.209Z,101485.56
2022-08-11T21:23:30.609Z,101484.47
2022-08-11T21:28:54.684Z,101485.53
2022-08-11T21:34:16.581Z,101490.34
2022-08-11T21:39:39.924Z,101498.22
2022-08-11T21:45:02.626Z,101496.47
2022-08-11T21:50:24.294Z,101483.22
2022-08-11T21:55:49.363Z,101497.28
2022-08-11T22:01:11.365Z,101496.38
2022-08-11T22:06:35.492Z,101488.28
2022-08-11T22:12:33.968Z,101472.28
2022-08-11T22:17:39.476Z,101482.47
2022-08-11T22:23:00.764Z,101480.66
2022-08-11T22:28:23.008Z,101476.34
2022-08-11T22:34:02.374Z,101476.34
2022-08-11T22:39:26.241Z,101474.56
2022-08-11T22:44:47.431Z,101460.28
2022-08-11T22:50:13.156Z,101469.78
2022-08-11T22:55:35.868Z,101472.34
2022-08-11T23:01:01.682Z,101460.78
2022-08-11T23:06:25.405Z,101463.91
2022-08-11T23:12:07.017Z,101459.53
2022-08-11T23:17:31.638Z,101457.97
2022-08-11T23:22:52.812Z,101463.97
2022-08-11T23:28:15.746Z,101460.06
2022-08-11T23:33:37.848Z,101461.63
2022-08-11T23:38:59.396Z,101462.59
2022-08-11T23:44:21.544Z,101475.50
2022-08-11T23:49:43.439Z,101474.84
2022-08-11T23:55:05.362Z,101468.75
